Berlin, Ohio
Current Conditions -  °F | °C
As of 7:53 PM on Tuesday 21 Oct 2014 (Local Time) from KPHD Reporting Station
Haze Haze  
Wind Chill: 43°   Ceiling: 1300
Heat Index: 47°   Visibility: 5mi
Dew Point: 43°   Wind: 8mph
Humidity: 86%   Direction: 320°NW
Pressure: 30.05"   Gusts: NA
Location:  40.56°N, 81.79°W
Report Text: KPHD 212353Z AUTO 32007KT 5SM BR OVC013 08/06 A3005 RMK AO2 RAE04B25E36 SLP179 P0001 60003 T00830061 10106 20083 51018
Loading
Personal Weather Stations






























Interactive Weather Map
Tropical Storm Tracking
New forecast layout! Learn more

10-Day Weather Forecast

Advertisements
Track Severe Weather on mobile